Latest Coastal Weather Observations for Frederick Reef

IDQ60701

Issued at 5:51 am EST Saturday 31 January 2015 (issued every 10 minutes, with the page automatically refreshed every 10 minutes)

About coastal observations | Map of coastal stations | Coastal observations for QLD | Marine services | Other Formats
Station Details ID: 200701 Name: FREDERICK REEF Lat: -20.94 Lon: 154.40 Height: 4.9 m
Data from the previous 72 hours. | See also: Recent months for locations in Queensland
Date/Time
EST
Temp

°C
Wind Pressure Rain
since 9am
mm
Weather Cloud Vis
km
Sea
Height
m
Swell
Dir
 
Speed
knots
Gust
knots
hPa Trend Height
m
Period
s
Dir
31/05:30am 27.1 SSE 19 21 1005.0 - - - - - - - - -
31/05:00am 27.0 SSE 20 22 1004.3 - - - - - - - - -
31/04:30am 27.1 SSE 19 21 1004.5 - - - - - - - - -
31/04:00am 27.1 SSE 20 22 1004.2 - - - - - - - - -
31/03:30am 27.3 SSE 20 22 1004.2 - - - - - - - - -
31/03:00am 27.3 SSE 20 22 1004.3 - - - - - - - - -
31/02:30am 27.2 SSE 20 22 1004.3 - - - - - - - - -
31/02:00am 27.3 SSE 19 21 1004.6 - - - - - - - - -
31/01:30am 27.2 SSE 20 23 1004.6 - - - - - - - - -
31/01:00am 27.3 SSE 19 21 1004.4 - - - - - - - - -
31/12:30am 27.2 SSE 20 23 1005.0 - - - - - - - - -
31/12:00am 27.5 SSE 20 22 1005.3 - - - - - - - - -
 
Date/Time
EST
Temp

°C
Wind Pressure Rain
since 9am
mm
Weather Cloud Vis
km
Sea
Height
m
Swell
Dir
 
Speed
knots
Gust
knots
hPa Trend Height
m
Period
s
Dir
30/11:30pm 27.5 SSE 20 23 1005.7 - - - - - - - - -
30/11:00pm 27.5 SSE 22 24 1005.9 - - - - - - - - -
30/10:30pm 27.8 SSE 21 24 1006.1 - - - - - - - - -
30/10:00pm 27.6 SSE 21 25 1005.6 - - - - - - - - -
30/09:30pm 27.6 SSE 23 26 1005.9 - - - - - - - - -
30/09:00pm 27.5 SSE 22 25 1005.5 - - - - - - - - -
30/08:30pm 27.6 SSE 24 27 1005.5 - - - - - - - - -
30/08:00pm 27.2 SSE 24 27 1005.5 - - - - - - - - -
30/07:30pm 27.7 SSE 24 27 1005.1 - - - - - - - - -
30/07:00pm 27.6 SSE 23 26 1005.0 - - - - - - - - -
30/06:30pm 27.7 SSE 24 27 1004.6 - - - - - - - - -
30/06:00pm 27.8 SSE 24 26 1004.3 - - - - - - - - -
30/05:30pm 27.7 SSE 24 26 1004.1 - - - - - - - - -
30/05:00pm 27.7 SSE 23 26 1003.8 - - - - - - - - -
30/04:30pm 27.7 SSE 22 25 1003.5 - - - - - - - - -
30/04:00pm 27.9 SSE 22 25 1003.1 - - - - - - - - -
30/03:30pm 27.7 SSE 21 24 1003.2 - - - - - - - - -
30/03:00pm 27.7 SSE 19 22 1003.0 - - - - - - - - -
30/02:30pm 27.7 SSE 19 21 1003.4 - - - - - - - - -
30/02:00pm 27.6 SSE 14 17 1003.3 - - - - - - - - -
30/01:30pm 27.1 SE 14 16 1003.8 - - - - - - - - -
30/01:00pm 27.0 SE 17 19 1003.7 - - - - - - - - -
30/12:30pm 26.7 ESE 18 21 1004.2 - - - - - - - - -
30/12:00pm 26.8 SE 19 22 1004.2 - - - - - - - - -
30/11:30am 26.8 ESE 20 22 1004.9 - - - - - - - - -
30/11:00am 26.5 E 20 23 1004.8 - - - - - - - - -
30/10:30am 26.6 ESE 22 25 1005.2 - - - - - - - - -
30/10:00am 26.1 E 24 28 1004.9 - - - - - - - - -
30/09:30am 26.0 E 27 30 1005.4 - - - - - - - - -
30/09:28am 26.1 ESE 26 30 1005.3 - - - - - - - - -
30/09:00am 27.4 SE 22 25 1005.2 - - - - - - - - -
30/08:30am 27.7 SE 22 25 1005.5 - - - - - - - - -
30/08:00am 27.3 SE 20 24 1004.9 - - - - - - - - -
30/07:30am 26.2 ESE 19 21 1005.3 - - - - - - - - -
30/07:00am 25.9 ESE 20 22 1005.1 - - - - - - - - -
30/06:30am 25.5 SE 20 23 1004.9 - - - - - - - - -
30/06:00am 25.3 SE 23 25 1004.5 - - - - - - - - -
30/05:30am 24.8 SE 26 30 1004.2 - - - - - - - - -
30/05:00am 24.4 SE 26 35 1003.8 - - - - - - - - -
30/04:30am 25.5 SSE 26 28 1003.6 - - - - - - - - -
30/04:00am 25.5 S 26 30 1003.2 - - - - - - - - -
30/03:30am 25.3 S 29 32 1003.6 - - - - - - - - -
30/03:00am 25.6 S 24 28 1003.5 - - - - - - - - -
30/02:30am 25.5 S 26 29 1003.6 - - - - - - - - -
30/02:00am 26.0 S 24 28 1003.9 - - - - - - - - -
30/01:30am 26.2 S 25 27 1003.9 - - - - - - - - -
30/01:00am 26.1 S 23 26 1004.1 - - - - - - - - -
30/12:30am 26.2 S 22 26 1004.5 - - - - - - - - -
30/12:13am 26.5 S 22 24 1004.6 - - - - - - - - -
30/12:00am 26.7 S 1 4 1004.3 - - - - - - - - -
 
Date/Time
EST
Temp

°C
Wind Pressure Rain
since 9am
mm
Weather Cloud Vis
km
Sea
Height
m
Swell
Dir
 
Speed
knots
Gust
knots
hPa Trend Height
m
Period
s
Dir
29/11:30pm 28.0 SSE 1 3 1005.2 - - - - - - - - -
29/11:00pm 28.0 SE 1 3 1005.4 - - - - - - - - -
29/10:30pm 28.1 SE 1 3 1005.5 - - - - - - - - -
29/10:00pm 28.1 SE 1 3 1005.5 - - - - - - - - -
29/09:30pm 28.1 CALM 0 4 1005.4 - - - - - - - - -
29/09:00pm 28.0 ESE 1 3 1004.9 - - - - - - - - -
29/08:30pm 28.0 ESE 1 3 1004.8 - - - - - - - - -
29/08:00pm 28.1 ESE 1 3 1004.7 - - - - - - - - -
29/07:30pm 28.1 ESE 1 3 1004.4 - - - - - - - - -
29/07:00pm 28.2 ESE 1 3 1004.1 - - - - - - - - -
29/06:30pm 28.1 SE 19 21 1003.8 - - - - - - - - -
29/06:00pm 28.0 SE 18 20 1003.3 - - - - - - - - -
29/05:30pm 28.0 SE 19 21 1002.9 - - - - - - - - -
29/05:00pm 28.1 SE 18 21 1002.4 - - - - - - - - -
29/04:30pm 27.9 SE 18 20 1002.5 - - - - - - - - -
29/04:00pm 27.9 SE 18 21 1001.9 - - - - - - - - -
29/03:30pm 27.8 SE 18 19 1002.1 - - - - - - - - -
29/03:00pm 27.8 SE 18 19 1001.9 - - - - - - - - -
29/02:30pm 27.9 SE 16 18 1002.5 - - - - - - - - -
29/02:00pm 28.0 SE 15 17 1002.3 - - - - - - - - -
29/01:30pm 27.9 SE 17 19 1002.5 - - - - - - - - -
29/01:00pm 27.7 SE 19 20 1002.2 - - - - - - - - -
29/12:30pm 27.9 SE 18 21 1003.2 - - - - - - - - -
29/12:00pm 27.9 SE 18 19 1003.1 - - - - - - - - -
29/11:30am 27.9 SE 17 19 1003.6 - - - - - - - - -
29/11:00am 27.8 SE 18 20 1003.3 - - - - - - - - -
29/10:30am 28.0 SE 17 18 1004.0 - - - - - - - - -
29/10:00am 28.1 SE 16 19 1003.7 - - - - - - - - -
29/09:30am 27.5 SE 17 18 1003.8 - - - - - - - - -
29/09:00am 27.2 SE 17 19 1003.4 - - - - - - - - -
29/08:30am 27.2 ESE 17 18 1003.8 - - - - - - - - -
29/08:00am 27.7 ESE 15 16 1003.2 - - - - - - - - -
29/07:30am 27.6 SE 15 17 1003.2 - - - - - - - - -
29/07:00am 27.6 SE 14 15 1003.2 - - - - - - - - -
29/06:30am 27.6 ESE 16 17 1002.8 - - - - - - - - -
29/06:00am 27.5 SE 15 18 1002.3 - - - - - - - - -
29/05:30am 27.2 SE 15 17 1002.2 - - - - - - - - -
29/05:00am 26.9 SE 14 17 1002.0 - - - - - - - - -
29/04:44am 26.6 SE 15 16 1001.9 - - - - - - - - -
29/04:30am 26.3 SSE 1 3 1002.0 - - - - - - - - -
29/04:00am 26.4 ESE 1 3 1001.6 - - - - - - - - -
29/03:30am 26.8 SE 1 3 1001.4 - - - - - - - - -
29/03:00am 27.1 ESE 1 2 1001.6 - - - - - - - - -
29/02:30am 26.6 ESE 1 3 1001.7 - - - - - - - - -
29/02:00am 26.6 CALM 0 4 1001.9 - - - - - - - - -
29/01:30am 26.2 ESE 1 2 1002.3 - - - - - - - - -
29/01:00am 26.7 ESE 1 3 1002.5 - - - - - - - - -
29/12:30am 26.7 ESE 1 3 1002.8 - - - - - - - - -
29/12:00am 26.6 SE 1 3 1002.8 - - - - - - - - -
 
Date/Time
EST
Temp

°C
Wind Pressure Rain
since 9am
mm
Weather Cloud Vis
km
Sea
Height
m
Swell
Dir
 
Speed
knots
Gust
knots
hPa Trend Height
m
Period
s
Dir
28/11:30pm 26.7 SE 1 3 1003.2 - - - - - - - - -
28/11:00pm 27.6 SE 1 3 1003.3 - - - - - - - - -
28/10:30pm 27.7 ESE 1 3 1003.5 - - - - - - - - -
28/10:00pm 28.1 E 1 4 1003.6 - - - - - - - - -
28/09:30pm 28.0 E 1 3 1003.6 - - - - - - - - -
28/09:00pm 28.0 E 1 3 1003.0 - - - - - - - - -
28/08:30pm 28.1 E 1 3 1002.8 - - - - - - - - -
28/08:00pm 28.1 E 1 3 1002.8 - - - - - - - - -
28/07:30pm 28.2 ESE 1 3 1002.5 - - - - - - - - -
28/07:00pm 28.1 ESE 1 3 1002.4 - - - - - - - - -
28/06:30pm 28.1 ESE 13 15 1001.8 - - - - - - - - -
28/06:00pm 28.0 ESE 13 15 1001.2 - - - - - - - - -
28/05:30pm 28.1 ESE 13 15 1001.2 - - - - - - - - -
28/05:00pm 28.0 ESE 12 13 1001.1 - - - - - - - - -
28/04:30pm 28.2 ESE 12 14 1000.6 - - - - - - - - -
28/04:00pm 28.1 SE 12 14 1000.2 - - - - - - - - -
28/03:30pm 28.2 ESE 12 13 1000.4 - - - - - - - - -
28/03:00pm 28.2 ESE 11 13 1000.5 - - - - - - - - -
28/02:30pm 28.2 ESE 11 13 1000.7 - - - - - - - - -
28/02:00pm 28.1 CALM 0 3 1000.3 - - - - - - - - -
28/01:30pm 28.1 ESE 1 3 1001.0 - - - - - - - - -
28/01:00pm 28.0 CALM 0 4 1000.9 - - - - - - - - -
28/12:30pm 28.0 E 1 3 1001.2 - - - - - - - - -
28/12:00pm 28.1 E 1 3 1001.2 - - - - - - - - -
28/11:30am 28.1 E 1 3 1001.9 - - - - - - - - -
28/11:00am 28.2 E 10 14 1002.0 - - - - - - - - -
28/10:30am 28.0 E 1 13 1002.3 - - - - - - - - -
28/10:00am 28.0 ESE 1 3 1002.1 - - - - - - - - -
28/09:30am 28.1 E 12 13 1002.5 - - - - - - - - -
28/09:00am 28.0 E 1 3 1002.2 - - - - - - - - -
28/08:30am 27.8 E 13 15 1002.5 - - - - - - - - -
28/08:00am 27.8 E 15 17 1002.1 - - - - - - - - -
28/07:30am 27.6 E 15 16 1002.1 - - - - - - - - -
28/07:00am 27.6 ESE 16 19 1001.9 - - - - - - - - -
28/06:30am 27.1 E 16 18 1001.5 - - - - - - - - -
28/06:00am 26.5 ESE 14 16 1001.3 - - - - - - - - -

Other Formats:

Comma delimited format used in spreadsheet applications
http://www.bom.gov.au/fwo/IDQ60701/IDQ60701.94393.axf

JavaScript Object Notation format (JSON) in row-major order
http://www.bom.gov.au/fwo/IDQ60701/IDQ60701.94393.json